Lake Murray, South Carolina
Current Conditions -  °F | °C
As of 6:55 AM on Sunday 21 Dec 2014 (Local Time) from KFDW Reporting Station
Haze Haze  
Wind Chill: 37°   Ceiling: 4800
Heat Index: 37°   Visibility: 5mi
Dew Point: 37°   Wind: 0mph
Humidity: 100%   Direction: NA
Pressure: 30.25"   Gusts: NA
Location:  34.1436°N, 81.3335°W
Report Text: KFDW 211155Z AUTO 00000KT 5SM BR SCT003 OVC048 03/03 A3025 RMK AO1
Loading
Personal Weather Stations






























Interactive Weather Map New forecast layout! Learn more

10-Day Weather Forecast

Advertisements
Track Severe Weather on mobile